sensor_id;sensor_type;location;lat;lon;timestamp;pressure;altitude;pressure_sealevel;temperature;humidity
74966;BME280;63522;47.928;21.042;2024-01-30T00:01:13;102829.83;;;16.48;43.04
74966;BME280;63522;47.928;21.042;2024-01-30T00:03:39;102828.94;;;16.47;43.05
74966;BME280;63522;47.928;21.042;2024-01-30T00:06:04;102829.64;;;16.48;43.00
74966;BME280;63522;47.928;21.042;2024-01-30T00:08:30;102828.08;;;16.47;42.92
74966;BME280;63522;47.928;21.042;2024-01-30T00:10:55;102831.14;;;16.47;42.93
74966;BME280;63522;47.928;21.042;2024-01-30T00:13:20;102831.68;;;16.46;42.98
74966;BME280;63522;47.928;21.042;2024-01-30T00:15:46;102832.09;;;16.45;42.95
74966;BME280;63522;47.928;21.042;2024-01-30T00:18:11;102836.64;;;16.45;43.04
74966;BME280;63522;47.928;21.042;2024-01-30T00:20:37;102840.63;;;16.44;43.06
74966;BME280;63522;47.928;21.042;2024-01-30T00:23:02;102847.27;;;16.44;42.92
74966;BME280;63522;47.928;21.042;2024-01-30T00:25:27;102846.20;;;16.44;43.03
74966;BME280;63522;47.928;21.042;2024-01-30T00:27:53;102847.31;;;16.43;42.90
74966;BME280;63522;47.928;21.042;2024-01-30T00:30:20;102847.52;;;16.43;42.98
74966;BME280;63522;47.928;21.042;2024-01-30T00:32:46;102845.36;;;16.43;43.06
74966;BME280;63522;47.928;21.042;2024-01-30T00:35:11;102850.52;;;16.44;42.99
74966;BME280;63522;47.928;21.042;2024-01-30T00:37:36;102847.14;;;16.43;43.08
74966;BME280;63522;47.928;21.042;2024-01-30T00:40:02;102850.92;;;16.43;42.87
74966;BME280;63522;47.928;21.042;2024-01-30T00:42:29;102853.80;;;16.43;42.93
74966;BME280;63522;47.928;21.042;2024-01-30T00:44:54;102855.27;;;16.42;42.92
74966;BME280;63522;47.928;21.042;2024-01-30T00:47:19;102858.11;;;16.43;42.86
74966;BME280;63522;47.928;21.042;2024-01-30T00:49:45;102852.43;;;16.42;42.91
74966;BME280;63522;47.928;21.042;2024-01-30T00:52:11;102853.64;;;16.43;43.02
74966;BME280;63522;47.928;21.042;2024-01-30T00:54:37;102856.13;;;16.43;42.97
74966;BME280;63522;47.928;21.042;2024-01-30T00:57:02;102852.95;;;16.42;42.92
74966;BME280;63522;47.928;21.042;2024-01-30T00:59:28;102855.62;;;16.43;42.85
74966;BME280;63522;47.928;21.042;2024-01-30T01:01:53;102852.40;;;16.42;42.90
74966;BME280;63522;47.928;21.042;2024-01-30T01:04:18;102852.80;;;16.42;42.93
74966;BME280;63522;47.928;21.042;2024-01-30T01:06:44;102852.85;;;16.41;42.82
74966;BME280;63522;47.928;21.042;2024-01-30T01:09:11;102848.89;;;16.41;42.86
74966;BME280;63522;47.928;21.042;2024-01-30T01:11:36;102844.92;;;16.41;42.76
74966;BME280;63522;47.928;21.042;2024-01-30T01:14:03;102844.52;;;16.42;42.93
74966;BME280;63522;47.928;21.042;2024-01-30T01:16:28;102848.83;;;16.42;42.80
74966;BME280;63522;47.928;21.042;2024-01-30T01:18:54;102847.21;;;16.42;42.82
74966;BME280;63522;47.928;21.042;2024-01-30T01:21:19;102847.92;;;16.42;42.88
74966;BME280;63522;47.928;21.042;2024-01-30T01:23:44;102849.16;;;16.42;42.96
74966;BME280;63522;47.928;21.042;2024-01-30T01:26:09;102852.08;;;16.42;42.87
74966;BME280;63522;47.928;21.042;2024-01-30T01:28:35;102853.52;;;16.42;42.83
74966;BME280;63522;47.928;21.042;2024-01-30T01:31:00;102846.21;;;16.40;42.91
74966;BME280;63522;47.928;21.042;2024-01-30T01:33:31;102845.27;;;16.41;42.87
74966;BME280;63522;47.928;21.042;2024-01-30T01:35:57;102843.16;;;16.40;42.89
74966;BME280;63522;47.928;21.042;2024-01-30T01:38:23;102841.88;;;16.41;42.82
74966;BME280;63522;47.928;21.042;2024-01-30T01:40:48;102839.87;;;16.41;42.80
74966;BME280;63522;47.928;21.042;2024-01-30T01:43:13;102836.48;;;16.41;42.81
74966;BME280;63522;47.928;21.042;2024-01-30T01:45:39;102833.80;;;16.40;42.83
74966;BME280;63522;47.928;21.042;2024-01-30T01:48:04;102838.61;;;16.41;42.78
74966;BME280;63522;47.928;21.042;2024-01-30T01:50:30;102839.87;;;16.41;42.81
74966;BME280;63522;47.928;21.042;2024-01-30T01:52:56;102835.57;;;16.41;42.77
74966;BME280;63522;47.928;21.042;2024-01-30T01:55:22;102832.52;;;16.41;42.85
74966;BME280;63522;47.928;21.042;2024-01-30T01:57:49;102831.10;;;16.41;42.77
74966;BME280;63522;47.928;21.042;2024-01-30T02:00:15;102830.77;;;16.40;42.77
74966;BME280;63522;47.928;21.042;2024-01-30T02:02:43;102835.40;;;16.41;42.76
74966;BME280;63522;47.928;21.042;2024-01-30T02:05:09;102835.45;;;16.40;42.71
74966;BME280;63522;47.928;21.042;2024-01-30T02:07:34;102838.65;;;16.41;42.76
74966;BME280;63522;47.928;21.042;2024-01-30T02:09:59;102842.60;;;16.41;42.72
74966;BME280;63522;47.928;21.042;2024-01-30T02:12:25;102840.45;;;16.40;42.74
74966;BME280;63522;47.928;21.042;2024-01-30T02:14:50;102835.05;;;16.40;42.74
74966;BME280;63522;47.928;21.042;2024-01-30T02:17:16;102838.31;;;16.40;42.73
74966;BME280;63522;47.928;21.042;2024-01-30T02:19:42;102836.51;;;16.40;42.69
74966;BME280;63522;47.928;21.042;2024-01-30T02:22:08;102833.95;;;16.41;42.74
74966;BME280;63522;47.928;21.042;2024-01-30T02:24:34;102836.02;;;16.40;42.74
74966;BME280;63522;47.928;21.042;2024-01-30T02:26:59;102843.52;;;16.40;42.58
74966;BME280;63522;47.928;21.042;2024-01-30T02:29:24;102846.20;;;16.41;42.61
74966;BME280;63522;47.928;21.042;2024-01-30T02:31:50;102841.69;;;16.41;42.67
74966;BME280;63522;47.928;21.042;2024-01-30T02:34:15;102842.99;;;16.40;42.70
74966;BME280;63522;47.928;21.042;2024-01-30T02:36:44;102838.52;;;16.40;42.58
74966;BME280;63522;47.928;21.042;2024-01-30T02:39:09;102839.38;;;16.40;42.61
74966;BME280;63522;47.928;21.042;2024-01-30T02:41:35;102839.00;;;16.41;42.67
74966;BME280;63522;47.928;21.042;2024-01-30T02:44:02;102839.67;;;16.41;42.59
74966;BME280;63522;47.928;21.042;2024-01-30T02:46:28;102841.65;;;16.42;42.66
74966;BME280;63522;47.928;21.042;2024-01-30T02:48:53;102838.77;;;16.42;42.63
74966;BME280;63522;47.928;21.042;2024-01-30T02:51:18;102836.08;;;16.42;42.55
74966;BME280;63522;47.928;21.042;2024-01-30T02:53:44;102837.13;;;16.42;42.60
74966;BME280;63522;47.928;21.042;2024-01-30T02:56:09;102841.80;;;16.42;42.57
74966;BME280;63522;47.928;21.042;2024-01-30T02:58:39;102839.09;;;16.43;42.65
74966;BME280;63522;47.928;21.042;2024-01-30T03:01:05;102835.70;;;16.42;42.56
74966;BME280;63522;47.928;21.042;2024-01-30T03:03:30;102833.54;;;16.42;42.41
74966;BME280;63522;47.928;21.042;2024-01-30T03:05:55;102833.77;;;16.41;42.53
74966;BME280;63522;47.928;21.042;2024-01-30T03:08:21;102835.17;;;16.42;42.47
74966;BME280;63522;47.928;21.042;2024-01-30T03:10:46;102842.89;;;16.42;42.50
74966;BME280;63522;47.928;21.042;2024-01-30T03:13:11;102841.43;;;16.42;42.40
74966;BME280;63522;47.928;21.042;2024-01-30T03:15:37;102838.81;;;16.41;42.39
74966;BME280;63522;47.928;21.042;2024-01-30T03:18:03;102843.45;;;16.41;42.40
74966;BME280;63522;47.928;21.042;2024-01-30T03:20:29;102842.20;;;16.42;42.59
74966;BME280;63522;47.928;21.042;2024-01-30T03:22:55;102839.31;;;16.42;42.46
74966;BME280;63522;47.928;21.042;2024-01-30T03:25:21;102842.90;;;16.42;42.44
74966;BME280;63522;47.928;21.042;2024-01-30T03:27:46;102849.02;;;16.42;42.46
74966;BME280;63522;47.928;21.042;2024-01-30T03:30:12;102842.34;;;16.42;42.38
74966;BME280;63522;47.928;21.042;2024-01-30T03:32:37;102839.14;;;16.42;42.43
74966;BME280;63522;47.928;21.042;2024-01-30T03:35:03;102835.34;;;16.42;42.49
74966;BME280;63522;47.928;21.042;2024-01-30T03:37:29;102829.81;;;16.41;42.45
74966;BME280;63522;47.928;21.042;2024-01-30T03:39:54;102829.64;;;16.41;42.44
74966;BME280;63522;47.928;21.042;2024-01-30T03:42:20;102833.08;;;16.41;42.39
74966;BME280;63522;47.928;21.042;2024-01-30T03:44:45;102832.33;;;16.41;42.39
74966;BME280;63522;47.928;21.042;2024-01-30T03:47:10;102828.96;;;16.40;42.40
74966;BME280;63522;47.928;21.042;2024-01-30T03:49:36;102827.13;;;16.41;42.23
74966;BME280;63522;47.928;21.042;2024-01-30T03:52:01;102830.35;;;16.41;42.51
74966;BME280;63522;47.928;21.042;2024-01-30T03:54:26;102830.91;;;16.41;42.47
74966;BME280;63522;47.928;21.042;2024-01-30T03:56:52;102823.41;;;16.40;42.15
74966;BME280;63522;47.928;21.042;2024-01-30T03:59:17;102821.40;;;16.40;42.42
74966;BME280;63522;47.928;21.042;2024-01-30T04:01:47;102821.77;;;16.40;42.32
74966;BME280;63522;47.928;21.042;2024-01-30T04:04:13;102813.73;;;16.39;42.34
74966;BME280;63522;47.928;21.042;2024-01-30T04:06:38;102815.32;;;16.40;42.41
74966;BME280;63522;47.928;21.042;2024-01-30T04:09:03;102817.65;;;16.40;42.42
74966;BME280;63522;47.928;21.042;2024-01-30T04:11:29;102818.23;;;16.39;42.43
74966;BME280;63522;47.928;21.042;2024-01-30T04:13:54;102818.09;;;16.39;42.36
74966;BME280;63522;47.928;21.042;2024-01-30T04:16:20;102820.41;;;16.39;42.33
74966;BME280;63522;47.928;21.042;2024-01-30T04:18:47;102817.02;;;16.38;42.32
74966;BME280;63522;47.928;21.042;2024-01-30T04:21:12;102822.38;;;16.39;42.30
74966;BME280;63522;47.928;21.042;2024-01-30T04:23:37;102821.91;;;16.38;42.26
74966;BME280;63522;47.928;21.042;2024-01-30T04:26:03;102824.05;;;16.38;42.29
74966;BME280;63522;47.928;21.042;2024-01-30T04:28:28;102828.88;;;16.38;42.37
74966;BME280;63522;47.928;21.042;2024-01-30T04:30:55;102822.79;;;16.38;42.39
74966;BME280;63522;47.928;21.042;2024-01-30T04:33:20;102821.38;;;16.37;42.17
74966;BME280;63522;47.928;21.042;2024-01-30T04:35:45;102828.36;;;16.38;42.32
74966;BME280;63522;47.928;21.042;2024-01-30T04:38:11;102828.17;;;16.38;42.27
74966;BME280;63522;47.928;21.042;2024-01-30T04:40:36;102828.02;;;16.38;42.13
74966;BME280;63522;47.928;21.042;2024-01-30T04:43:01;102830.39;;;16.37;42.31
74966;BME280;63522;47.928;21.042;2024-01-30T04:45:27;102830.95;;;16.36;42.33
74966;BME280;63522;47.928;21.042;2024-01-30T04:47:52;102826.98;;;16.37;42.31
74966;BME280;63522;47.928;21.042;2024-01-30T04:50:17;102829.52;;;16.37;42.23
74966;BME280;63522;47.928;21.042;2024-01-30T04:52:43;102829.38;;;16.36;42.22
74966;BME280;63522;47.928;21.042;2024-01-30T04:55:09;102831.34;;;16.36;42.26
74966;BME280;63522;47.928;21.042;2024-01-30T04:57:34;102832.23;;;16.36;42.27
74966;BME280;63522;47.928;21.042;2024-01-30T04:59:59;102831.34;;;16.36;42.20
74966;BME280;63522;47.928;21.042;2024-01-30T05:02:25;102837.05;;;16.37;42.12
74966;BME280;63522;47.928;21.042;2024-01-30T05:04:50;102838.85;;;16.37;42.15
74966;BME280;63522;47.928;21.042;2024-01-30T05:07:15;102841.56;;;16.36;42.08
74966;BME280;63522;47.928;21.042;2024-01-30T05:09:41;102841.90;;;16.37;42.21
74966;BME280;63522;47.928;21.042;2024-01-30T05:12:07;102844.04;;;16.37;42.16
74966;BME280;63522;47.928;21.042;2024-01-30T05:14:32;102842.96;;;16.37;42.12
74966;BME280;63522;47.928;21.042;2024-01-30T05:16:57;102844.91;;;16.38;42.21
74966;BME280;63522;47.928;21.042;2024-01-30T05:19:23;102844.19;;;16.38;42.10
74966;BME280;63522;47.928;21.042;2024-01-30T05:21:49;102841.84;;;16.38;42.18
74966;BME280;63522;47.928;21.042;2024-01-30T05:24:14;102843.45;;;16.38;42.27
74966;BME280;63522;47.928;21.042;2024-01-30T05:26:39;102845.23;;;16.39;42.09
74966;BME280;63522;47.928;21.042;2024-01-30T05:29:05;102848.83;;;16.38;42.06
74966;BME280;63522;47.928;21.042;2024-01-30T05:31:31;102847.91;;;16.39;42.12
74966;BME280;63522;47.928;21.042;2024-01-30T05:33:57;102850.64;;;16.38;42.14
74966;BME280;63522;47.928;21.042;2024-01-30T05:36:22;102852.45;;;16.38;42.08
74966;BME280;63522;47.928;21.042;2024-01-30T05:38:48;102856.39;;;16.38;42.07
74966;BME280;63522;47.928;21.042;2024-01-30T05:41:13;102856.24;;;16.37;42.03
74966;BME280;63522;47.928;21.042;2024-01-30T05:43:38;102851.59;;;16.37;42.21
74966;BME280;63522;47.928;21.042;2024-01-30T05:46:04;102858.44;;;16.37;42.01
74966;BME280;63522;47.928;21.042;2024-01-30T05:48:29;102855.35;;;16.38;41.99
74966;BME280;63522;47.928;21.042;2024-01-30T05:50:55;102858.59;;;16.37;42.12
74966;BME280;63522;47.928;21.042;2024-01-30T05:53:21;102862.38;;;16.37;42.08
74966;BME280;63522;47.928;21.042;2024-01-30T05:55:46;102862.73;;;16.37;42.05
74966;BME280;63522;47.928;21.042;2024-01-30T05:58:12;102864.73;;;16.37;41.95
74966;BME280;63522;47.928;21.042;2024-01-30T06:00:37;102864.55;;;16.37;42.02
74966;BME280;63522;47.928;21.042;2024-01-30T06:03:03;102862.77;;;16.37;42.04
74966;BME280;63522;47.928;21.042;2024-01-30T06:05:28;102862.05;;;16.37;41.97
74966;BME280;63522;47.928;21.042;2024-01-30T06:07:54;102864.73;;;16.37;41.99
74966;BME280;63522;47.928;21.042;2024-01-30T06:10:19;102862.27;;;16.36;41.95
74966;BME280;63522;47.928;21.042;2024-01-30T06:12:44;102861.00;;;16.36;41.92
74966;BME280;63522;47.928;21.042;2024-01-30T06:15:10;102864.41;;;16.36;42.01
74966;BME280;63522;47.928;21.042;2024-01-30T06:17:37;102866.25;;;16.35;41.85
74966;BME280;63522;47.928;21.042;2024-01-30T06:20:03;102865.50;;;16.36;42.07
74966;BME280;63522;47.928;21.042;2024-01-30T06:22:29;102866.09;;;16.35;41.90
74966;BME280;63522;47.928;21.042;2024-01-30T06:24:54;102865.89;;;16.35;41.92
74966;BME280;63522;47.928;21.042;2024-01-30T06:27:19;102867.69;;;16.35;42.02
74966;BME280;63522;47.928;21.042;2024-01-30T06:29:45;102866.13;;;16.34;41.88
74966;BME280;63522;47.928;21.042;2024-01-30T06:32:10;102871.66;;;16.35;41.88
74966;BME280;63522;47.928;21.042;2024-01-30T06:34:36;102878.27;;;16.36;41.89
74966;BME280;63522;47.928;21.042;2024-01-30T06:37:03;102882.41;;;16.35;41.83
74966;BME280;63522;47.928;21.042;2024-01-30T06:39:29;102885.52;;;16.34;41.79
74966;BME280;63522;47.928;21.042;2024-01-30T06:41:54;102888.91;;;16.35;42.00
74966;BME280;63522;47.928;21.042;2024-01-30T06:44:19;102895.29;;;16.33;41.97
74966;BME280;63522;47.928;21.042;2024-01-30T06:46:45;102893.65;;;16.34;41.97
74966;BME280;63522;47.928;21.042;2024-01-30T06:49:10;102894.86;;;16.35;41.92
74966;BME280;63522;47.928;21.042;2024-01-30T06:51:36;102889.16;;;16.34;41.90
74966;BME280;63522;47.928;21.042;2024-01-30T06:54:01;102881.98;;;16.33;42.00
74966;BME280;63522;47.928;21.042;2024-01-30T06:56:26;102878.23;;;16.33;41.83
74966;BME280;63522;47.928;21.042;2024-01-30T06:58:52;102880.61;;;16.32;41.97
74966;BME280;63522;47.928;21.042;2024-01-30T07:01:17;102882.66;;;16.31;41.91
74966;BME280;63522;47.928;21.042;2024-01-30T07:03:43;102886.77;;;16.31;42.05
74966;BME280;63522;47.928;21.042;2024-01-30T07:06:09;102888.25;;;16.30;41.91
74966;BME280;63522;47.928;21.042;2024-01-30T07:08:36;102892.53;;;16.31;41.78
74966;BME280;63522;47.928;21.042;2024-01-30T07:11:02;102891.82;;;16.31;41.85
74966;BME280;63522;47.928;21.042;2024-01-30T07:13:28;102886.78;;;16.31;42.05
74966;BME280;63522;47.928;21.042;2024-01-30T07:15:54;102884.42;;;16.31;41.90
74966;BME280;63522;47.928;21.042;2024-01-30T07:18:19;102883.27;;;16.29;41.87
74966;BME280;63522;47.928;21.042;2024-01-30T07:20:44;102889.63;;;16.31;41.93
74966;BME280;63522;47.928;21.042;2024-01-30T07:23:13;102886.17;;;16.32;41.84
74966;BME280;63522;47.928;21.042;2024-01-30T07:25:40;102883.33;;;16.32;41.94
74966;BME280;63522;47.928;21.042;2024-01-30T07:28:07;102888.35;;;16.32;41.87
74966;BME280;63522;47.928;21.042;2024-01-30T07:30:34;102891.39;;;16.32;41.95
74966;BME280;63522;47.928;21.042;2024-01-30T07:33:00;102892.30;;;16.32;41.77
74966;BME280;63522;47.928;21.042;2024-01-30T07:35:25;102894.85;;;16.31;41.94
74966;BME280;63522;47.928;21.042;2024-01-30T07:37:50;102895.38;;;16.32;41.83
74966;BME280;63522;47.928;21.042;2024-01-30T07:40:16;102893.96;;;16.31;41.85
74966;BME280;63522;47.928;21.042;2024-01-30T07:42:42;102896.84;;;16.31;41.94
74966;BME280;63522;47.928;21.042;2024-01-30T07:45:07;102891.63;;;16.31;41.90
74966;BME280;63522;47.928;21.042;2024-01-30T07:47:33;102895.73;;;16.32;41.71
74966;BME280;63522;47.928;21.042;2024-01-30T07:49:58;102893.55;;;16.32;41.89
74966;BME280;63522;47.928;21.042;2024-01-30T07:52:24;102887.63;;;16.32;41.84
74966;BME280;63522;47.928;21.042;2024-01-30T07:54:50;102891.40;;;16.32;41.93
74966;BME280;63522;47.928;21.042;2024-01-30T07:57:15;102890.48;;;16.32;41.76
74966;BME280;63522;47.928;21.042;2024-01-30T07:59:44;102891.16;;;16.33;41.91
74966;BME280;63522;47.928;21.042;2024-01-30T08:02:13;102890.81;;;16.33;41.70
74966;BME280;63522;47.928;21.042;2024-01-30T08:04:39;102891.89;;;16.33;41.79
74966;BME280;63522;47.928;21.042;2024-01-30T08:07:04;102890.42;;;16.34;41.86
74966;BME280;63522;47.928;21.042;2024-01-30T08:09:29;102898.48;;;16.34;41.85
74966;BME280;63522;47.928;21.042;2024-01-30T08:11:55;102898.29;;;16.34;41.75
74966;BME280;63522;47.928;21.042;2024-01-30T08:14:20;102901.86;;;16.35;41.79
74966;BME280;63522;47.928;21.042;2024-01-30T08:16:45;102898.29;;;16.34;41.71
74966;BME280;63522;47.928;21.042;2024-01-30T08:19:11;102895.41;;;16.34;41.74
74966;BME280;63522;47.928;21.042;2024-01-30T08:21:36;102893.78;;;16.35;41.75
74966;BME280;63522;47.928;21.042;2024-01-30T08:24:05;102893.54;;;16.36;41.84
74966;BME280;63522;47.928;21.042;2024-01-30T08:26:34;102893.91;;;16.36;41.69
74966;BME280;63522;47.928;21.042;2024-01-30T08:29:01;102892.80;;;16.36;41.70
74966;BME280;63522;47.928;21.042;2024-01-30T16:08:58;102709.77;;;16.20;42.44
74966;BME280;63522;47.928;21.042;2024-01-30T16:11:23;102709.08;;;16.20;42.51
74966;BME280;63522;47.928;21.042;2024-01-30T16:13:49;102712.48;;;16.20;42.52
74966;BME280;63522;47.928;21.042;2024-01-30T16:16:17;102717.30;;;16.20;42.39
74966;BME280;63522;47.928;21.042;2024-01-30T16:18:43;102715.82;;;16.21;42.40
74966;BME280;63522;47.928;21.042;2024-01-30T16:21:08;102719.21;;;16.22;42.47
74966;BME280;63522;47.928;21.042;2024-01-30T16:23:33;102720.05;;;16.23;42.43
74966;BME280;63522;47.928;21.042;2024-01-30T16:25:59;102719.63;;;16.24;42.33
74966;BME280;63522;47.928;21.042;2024-01-30T16:28:25;102715.83;;;16.24;42.57
74966;BME280;63522;47.928;21.042;2024-01-30T16:30:51;102714.16;;;16.26;42.43
74966;BME280;63522;47.928;21.042;2024-01-30T16:33:16;102714.72;;;16.26;42.30
74966;BME280;63522;47.928;21.042;2024-01-30T16:35:43;102716.56;;;16.28;42.40
74966;BME280;63522;47.928;21.042;2024-01-30T16:38:08;102711.21;;;16.28;42.36
74966;BME280;63522;47.928;21.042;2024-01-30T16:40:33;102710.23;;;16.29;42.32
74966;BME280;63522;47.928;21.042;2024-01-30T16:42:59;102711.44;;;16.30;42.22
74966;BME280;63522;47.928;21.042;2024-01-30T16:45:24;102708.49;;;16.31;42.37
74966;BME280;63522;47.928;21.042;2024-01-30T16:47:50;102708.46;;;16.32;41.99
74966;BME280;63522;47.928;21.042;2024-01-30T16:50:16;102714.54;;;16.32;42.31
74966;BME280;63522;47.928;21.042;2024-01-30T16:52:41;102710.91;;;16.33;42.12
74966;BME280;63522;47.928;21.042;2024-01-30T16:55:07;102710.91;;;16.33;42.15
74966;BME280;63522;47.928;21.042;2024-01-30T16:57:33;102712.29;;;16.34;42.19
74966;BME280;63522;47.928;21.042;2024-01-30T16:59:58;102712.78;;;16.35;42.13
74966;BME280;63522;47.928;21.042;2024-01-30T17:02:23;102712.04;;;16.35;42.07
74966;BME280;63522;47.928;21.042;2024-01-30T17:04:49;102708.95;;;16.36;42.22
74966;BME280;63522;47.928;21.042;2024-01-30T17:07:14;102707.84;;;16.36;42.21
74966;BME280;63522;47.928;21.042;2024-01-30T17:09:39;102702.84;;;16.36;42.12
74966;BME280;63522;47.928;21.042;2024-01-30T17:12:05;102701.70;;;16.37;41.98
74966;BME280;63522;47.928;21.042;2024-01-30T17:14:30;102698.74;;;16.39;42.17
74966;BME280;63522;47.928;21.042;2024-01-30T17:16:56;102697.99;;;16.39;41.99
74966;BME280;63522;47.928;21.042;2024-01-30T17:19:21;102697.25;;;16.40;41.96
74966;BME280;63522;47.928;21.042;2024-01-30T17:21:47;102694.39;;;16.39;42.01
74966;BME280;63522;47.928;21.042;2024-01-30T17:24:12;102697.98;;;16.39;42.05
74966;BME280;63522;47.928;21.042;2024-01-30T17:26:40;102698.45;;;16.41;42.08
74966;BME280;63522;47.928;21.042;2024-01-30T17:29:06;102695.98;;;16.40;41.98
74966;BME280;63522;47.928;21.042;2024-01-30T17:31:32;102695.96;;;16.40;41.85
74966;BME280;63522;47.928;21.042;2024-01-30T17:33:57;102691.29;;;16.40;41.89
74966;BME280;63522;47.928;21.042;2024-01-30T17:36:23;102690.57;;;16.40;41.92
74966;BME280;63522;47.928;21.042;2024-01-30T17:38:50;102691.95;;;16.41;41.98
74966;BME280;63522;47.928;21.042;2024-01-30T17:41:16;102687.42;;;16.42;41.88
74966;BME280;63522;47.928;21.042;2024-01-30T17:43:41;102692.45;;;16.42;41.92
74966;BME280;63522;47.928;21.042;2024-01-30T17:46:06;102689.90;;;16.43;41.79
74966;BME280;63522;47.928;21.042;2024-01-30T17:48:32;102687.57;;;16.43;41.83
74966;BME280;63522;47.928;21.042;2024-01-30T17:50:57;102686.92;;;16.41;41.83
74966;BME280;63522;47.928;21.042;2024-01-30T17:53:23;102686.52;;;16.42;41.90
74966;BME280;63522;47.928;21.042;2024-01-30T17:55:48;102688.52;;;16.41;41.80
74966;BME280;63522;47.928;21.042;2024-01-30T17:58:14;102688.31;;;16.42;41.91
74966;BME280;63522;47.928;21.042;2024-01-30T18:00:39;102684.92;;;16.41;41.82
74966;BME280;63522;47.928;21.042;2024-01-30T18:03:05;102685.50;;;16.41;41.80
74966;BME280;63522;47.928;21.042;2024-01-30T18:05:30;102686.19;;;16.41;41.74
74966;BME280;63522;47.928;21.042;2024-01-30T18:07:56;102683.89;;;16.41;41.85
74966;BME280;63522;47.928;21.042;2024-01-30T18:10:21;102681.58;;;16.40;41.69
74966;BME280;63522;47.928;21.042;2024-01-30T18:12:46;102677.45;;;16.40;41.88
74966;BME280;63522;47.928;21.042;2024-01-30T18:15:12;102677.48;;;16.40;41.83
74966;BME280;63522;47.928;21.042;2024-01-30T18:17:38;102673.88;;;16.40;41.71
74966;BME280;63522;47.928;21.042;2024-01-30T18:20:04;102669.87;;;16.41;41.81
74966;BME280;63522;47.928;21.042;2024-01-30T18:23:04;102667.68;;;16.41;41.89
74966;BME280;63522;47.928;21.042;2024-01-30T19:07:07;102649.16;;;16.24;41.92
74966;BME280;63522;47.928;21.042;2024-01-30T19:09:32;102646.91;;;16.23;42.05
74966;BME280;63522;47.928;21.042;2024-01-30T19:11:58;102641.71;;;16.23;42.08
74966;BME280;63522;47.928;21.042;2024-01-30T19:14:23;102644.02;;;16.23;41.93
74966;BME280;63522;47.928;21.042;2024-01-30T19:16:48;102642.56;;;16.24;41.92
74966;BME280;63522;47.928;21.042;2024-01-30T19:19:14;102641.98;;;16.24;41.87
74966;BME280;63522;47.928;21.042;2024-01-30T19:21:39;102640.94;;;16.24;41.96
74966;BME280;63522;47.928;21.042;2024-01-30T19:24:06;102637.83;;;16.25;42.04
74966;BME280;63522;47.928;21.042;2024-01-30T19:26:32;102639.24;;;16.26;42.07
74966;BME280;63522;47.928;21.042;2024-01-30T19:28:57;102639.58;;;16.26;41.99
74966;BME280;63522;47.928;21.042;2024-01-30T19:31:23;102641.51;;;16.27;41.88
74966;BME280;63522;47.928;21.042;2024-01-30T19:33:49;102636.05;;;16.28;41.90
74966;BME280;63522;47.928;21.042;2024-01-30T19:36:14;102636.59;;;16.28;41.86
74966;BME280;63522;47.928;21.042;2024-01-30T19:38:40;102635.66;;;16.29;41.93
74966;BME280;63522;47.928;21.042;2024-01-30T19:41:10;102636.31;;;16.30;41.88
74966;BME280;63522;47.928;21.042;2024-01-30T19:43:36;102629.33;;;16.30;41.83
74966;BME280;63522;47.928;21.042;2024-01-30T19:46:02;102630.54;;;16.31;41.93
74966;BME280;63522;47.928;21.042;2024-01-30T19:48:27;102626.79;;;16.30;41.69
74966;BME280;63522;47.928;21.042;2024-01-30T19:50:53;102624.77;;;16.31;41.80
74966;BME280;63522;47.928;21.042;2024-01-30T19:53:18;102623.46;;;16.32;41.81
74966;BME280;63522;47.928;21.042;2024-01-30T19:55:46;102626.30;;;16.32;41.85
74966;BME280;63522;47.928;21.042;2024-01-30T19:58:11;102622.69;;;16.33;41.82
74966;BME280;63522;47.928;21.042;2024-01-30T20:00:39;102620.32;;;16.33;41.80
74966;BME280;63522;47.928;21.042;2024-01-30T20:03:04;102620.11;;;16.34;41.77
74966;BME280;63522;47.928;21.042;2024-01-30T20:05:30;102619.88;;;16.35;41.73
74966;BME280;63522;47.928;21.042;2024-01-30T20:07:55;102622.55;;;16.35;41.71
74966;BME280;63522;47.928;21.042;2024-01-30T20:10:21;102624.14;;;16.36;41.73
74966;BME280;63522;47.928;21.042;2024-01-30T20:12:46;102625.00;;;16.36;41.82
74966;BME280;63522;47.928;21.042;2024-01-30T20:15:12;102622.29;;;16.37;41.77
74966;BME280;63522;47.928;21.042;2024-01-30T20:17:40;102621.19;;;16.37;41.83
74966;BME280;63522;47.928;21.042;2024-01-30T20:26:50;102619.73;;;16.37;41.68
74966;BME280;63522;47.928;21.042;2024-01-30T20:29:16;102623.21;;;16.36;41.71
74966;BME280;63522;47.928;21.042;2024-01-30T20:31:44;102617.09;;;16.36;41.68
74966;BME280;63522;47.928;21.042;2024-01-30T20:34:10;102621.06;;;16.36;41.63
74966;BME280;63522;47.928;21.042;2024-01-30T20:36:36;102621.83;;;16.35;41.59
74966;BME280;63522;47.928;21.042;2024-01-30T20:39:01;102620.57;;;16.35;41.59
74966;BME280;63522;47.928;21.042;2024-01-30T20:41:28;102625.61;;;16.35;41.67
74966;BME280;63522;47.928;21.042;2024-01-30T20:43:53;102624.31;;;16.36;41.52
74966;BME280;63522;47.928;21.042;2024-01-30T20:46:19;102619.52;;;16.35;41.65
74966;BME280;63522;47.928;21.042;2024-01-30T20:48:44;102621.27;;;16.35;41.69
74966;BME280;63522;47.928;21.042;2024-01-30T20:51:12;102618.71;;;16.36;41.69
74966;BME280;63522;47.928;21.042;2024-01-30T20:53:38;102611.31;;;16.37;41.66
74966;BME280;63522;47.928;21.042;2024-01-30T20:56:05;102609.03;;;16.36;41.43
74966;BME280;63522;47.928;21.042;2024-01-30T20:58:30;102612.42;;;16.36;41.54